Time;durP1;ratioP1;P1;durP2;ratioP2;P2;SDS_P1;SDS_P2;PMS_P1;PMS_P2;Temp;Humidity;BMP_temperature;BMP_pressure;BME280_temperature;BME280_humidity;BME280_pressure;Samples;Min_cycle;Max_cycle;Signal;HPM_P1;HPM_P2
2022/10/22 00:00:51;;;;;;;23.77;11.80;;;;;;;;;;5027920;28;20041;-62
2022/10/22 00:03:17;;;;;;;23.53;11.43;;;;;;;;;;5019787;28;20132;-62
2022/10/22 00:05:43;;;;;;;18.93;10.63;;;;;;;;;;5018213;28;20056;-62
2022/10/22 00:08:09;;;;;;;20.23;10.03;;;;;;;;;;5032648;28;20095;-62
2022/10/22 00:10:37;;;;;;;19.03;11.90;;;;;;;;;;5025136;28;20034;-62
2022/10/22 00:13:03;;;;;;;19.10;11.07;;;;;;;;;;5012333;28;20590;-62
2022/10/22 00:15:29;;;;;;;25.87;11.93;;;;;;;;;;5012423;28;20079;-62
2022/10/22 00:17:55;;;;;;;17.07;11.40;;;;;;;;;;5012694;28;20092;-62
2022/10/22 00:20:21;;;;;;;24.67;12.17;;;;;;;;;;5013161;28;20041;-62
2022/10/22 00:22:47;;;;;;;19.53;12.47;;;;;;;;;;5021549;28;20226;-62
2022/10/22 00:25:14;;;;;;;19.90;11.43;;;;;;;;;;4994510;28;20054;-62
2022/10/22 00:27:40;;;;;;;19.30;11.07;;;;;;;;;;5012642;28;20038;-62
2022/10/22 00:30:06;;;;;;;20.87;10.77;;;;;;;;;;5012108;28;20045;-63
2022/10/22 00:32:32;;;;;;;20.80;11.77;;;;;;;;;;5019609;28;20041;-63
2022/10/22 00:34:58;;;;;;;20.03;11.83;;;;;;;;;;5029901;28;20066;-62
2022/10/22 00:37:24;;;;;;;32.03;15.10;;;;;;;;;;5031774;28;20122;-62
2022/10/22 00:39:50;;;;;;;24.40;12.43;;;;;;;;;;5031571;28;20068;-62
2022/10/22 00:42:19;;;;;;;16.93;11.80;;;;;;;;;;5031847;28;20050;-62
2022/10/22 00:45:05;;;;;;;21.53;12.73;;;;;;;;;;5029819;28;20052;-62
2022/10/22 00:47:34;;;;;;;28.23;14.00;;;;;;;;;;5030830;28;20045;-62
2022/10/22 00:50:01;;;;;;;27.33;14.60;;;;;;;;;;5031672;28;20045;-62
2022/10/22 00:52:28;;;;;;;31.77;12.33;;;;;;;;;;5017044;28;20050;-63
2022/10/22 00:54:54;;;;;;;23.90;13.20;;;;;;;;;;5012146;28;20054;-63
2022/10/22 00:57:20;;;;;;;21.63;12.50;;;;;;;;;;5012115;28;20049;-63
2022/10/22 00:59:47;;;;;;;28.50;14.50;;;;;;;;;;5011718;28;20099;-62
2022/10/22 01:02:13;;;;;;;25.90;13.20;;;;;;;;;;5012017;28;20045;-62
2022/10/22 01:04:40;;;;;;;22.17;13.10;;;;;;;;;;5011907;28;20523;-62
2022/10/22 01:07:06;;;;;;;26.43;13.77;;;;;;;;;;5011762;28;20100;-62
2022/10/22 01:09:40;;;;;;;26.80;14.40;;;;;;;;;;5011857;28;20045;-62
2022/10/22 01:12:09;;;;;;;24.70;14.40;;;;;;;;;;5011435;28;20104;-63
2022/10/22 01:14:54;;;;;;;24.33;13.83;;;;;;;;;;5011618;28;20050;-62
2022/10/22 01:17:24;;;;;;;23.03;13.00;;;;;;;;;;5026938;28;20607;-62
2022/10/22 01:20:09;;;;;;;25.60;14.13;;;;;;;;;;5031468;28;20087;-62
2022/10/22 01:22:44;;;;;;;24.80;13.57;;;;;;;;;;5030567;28;20046;-63
2022/10/22 01:25:10;;;;;;;21.77;13.87;;;;;;;;;;5031190;28;20053;-62
2022/10/22 01:27:55;;;;;;;25.00;14.00;;;;;;;;;;5031451;28;20053;-63
2022/10/22 01:30:21;;;;;;;30.07;14.70;;;;;;;;;;5031339;28;20049;-63
2022/10/22 01:32:49;;;;;;;27.27;14.77;;;;;;;;;;5031151;28;20045;-63
2022/10/22 01:35:18;;;;;;;22.70;14.00;;;;;;;;;;5030754;28;20061;-62
2022/10/22 01:37:53;;;;;;;28.57;14.37;;;;;;;;;;5030790;28;20053;-63
2022/10/22 01:40:19;;;;;;;25.83;14.47;;;;;;;;;;5030894;28;20057;-62
2022/10/22 01:42:59;;;;;;;25.77;14.67;;;;;;;;;;5030931;28;20104;-63
2022/10/22 01:45:25;;;;;;;31.03;14.73;;;;;;;;;;5015527;28;20045;-63
2022/10/22 01:48:03;;;;;;;43.07;19.87;;;;;;;;;;5011001;28;20053;-63
2022/10/22 01:50:48;;;;;;;31.37;15.17;;;;;;;;;;5010703;28;20050;-63
2022/10/22 01:53:21;;;;;;;31.37;15.70;;;;;;;;;;5011006;28;20054;-63
2022/10/22 01:55:54;;;;;;;33.42;17.40;;;;;;;;;;5010825;28;20064;-62
2022/10/22 01:58:32;;;;;;;37.30;17.02;;;;;;;;;;5010749;28;20042;-63
2022/10/22 02:01:18;;;;;;;34.00;18.43;;;;;;;;;;5009999;28;20057;-63
2022/10/22 02:03:49;;;;;;;33.97;17.03;;;;;;;;;;5009495;28;20049;-63
2022/10/22 02:06:18;;;;;;;36.63;18.53;;;;;;;;;;5022059;28;20049;-62
2022/10/22 02:08:44;;;;;;;35.53;17.87;;;;;;;;;;5030272;28;20095;-62
2022/10/22 02:11:12;;;;;;;35.53;18.93;;;;;;;;;;5030110;28;20161;-63
2022/10/22 02:13:42;;;;;;;42.17;20.93;;;;;;;;;;5014666;28;20511;-63
2022/10/22 02:16:10;;;;;;;40.63;21.23;;;;;;;;;;5010427;28;20049;-62
2022/10/22 02:18:38;;;;;;;36.47;18.37;;;;;;;;;;5009298;28;20069;-62
2022/10/22 02:21:05;;;;;;;38.43;20.10;;;;;;;;;;5010477;28;20046;-63
2022/10/22 02:23:31;;;;;;;33.90;18.53;;;;;;;;;;5010318;28;20058;-63
2022/10/22 02:26:01;;;;;;;41.67;19.30;;;;;;;;;;5010644;28;20117;-62
2022/10/22 02:28:53;;;;;;;44.47;20.37;;;;;;;;;;5010375;28;20052;-63
2022/10/22 02:31:22;;;;;;;48.67;22.07;;;;;;;;;;5009833;28;20050;-62
2022/10/22 02:33:51;;;;;;;41.03;20.60;;;;;;;;;;5010574;28;20048;-63
2022/10/22 02:36:17;;;;;;;39.97;20.37;;;;;;;;;;5010276;28;20508;-63
2022/10/22 02:38:45;;;;;;;54.80;23.33;;;;;;;;;;5010139;28;20135;-63
2022/10/22 02:41:11;;;;;;;45.03;22.40;;;;;;;;;;5021218;28;20041;-63
2022/10/22 02:43:41;;;;;;;42.17;21.47;;;;;;;;;;5030008;28;20037;-63
2022/10/22 02:46:08;;;;;;;44.73;22.67;;;;;;;;;;5030316;28;20103;-63
2022/10/22 02:48:34;;;;;;;56.57;25.73;;;;;;;;;;5029900;28;20052;-63
2022/10/22 02:51:00;;;;;;;47.17;22.63;;;;;;;;;;5029378;28;20076;-63
2022/10/22 02:53:26;;;;;;;44.63;23.00;;;;;;;;;;5029675;28;20416;-63
2022/10/22 02:55:52;;;;;;;47.27;23.87;;;;;;;;;;5029503;28;20056;-63
2022/10/22 02:58:18;;;;;;;46.17;23.13;;;;;;;;;;5029629;28;20528;-63
2022/10/22 03:00:45;;;;;;;57.90;26.93;;;;;;;;;;5029622;28;20502;-63
2022/10/22 03:03:11;;;;;;;49.93;23.70;;;;;;;;;;5029675;28;20061;-63
2022/10/22 03:05:37;;;;;;;70.17;29.93;;;;;;;;;;5029269;28;20088;-63
2022/10/22 03:08:03;;;;;;;52.23;24.20;;;;;;;;;;5027588;28;20175;-63
2022/10/22 03:10:29;;;;;;;49.30;25.50;;;;;;;;;;5009976;28;20053;-63
2022/10/22 03:12:55;;;;;;;50.10;24.13;;;;;;;;;;5009548;28;20045;-63
2022/10/22 03:15:21;;;;;;;47.10;22.97;;;;;;;;;;5009391;28;20050;-63
2022/10/22 03:17:47;;;;;;;43.80;23.57;;;;;;;;;;5009767;28;20515;-63
2022/10/22 03:20:13;;;;;;;47.10;24.00;;;;;;;;;;5009746;28;20080;-63
2022/10/22 03:22:40;;;;;;;48.83;24.40;;;;;;;;;;5024064;28;20045;-63
2022/10/22 03:25:09;;;;;;;46.10;24.23;;;;;;;;;;5029270;28;20046;-63
2022/10/22 03:27:36;;;;;;;45.10;24.37;;;;;;;;;;5029162;28;20045;-63
2022/10/22 03:30:03;;;;;;;47.33;24.40;;;;;;;;;;5029127;28;20052;-63
2022/10/22 03:32:29;;;;;;;48.87;25.17;;;;;;;;;;5029292;28;20056;-63
2022/10/22 03:34:55;;;;;;;55.47;25.97;;;;;;;;;;5029179;28;20534;-63
2022/10/22 03:37:22;;;;;;;47.20;25.13;;;;;;;;;;5016738;28;20054;-63
2022/10/22 03:39:48;;;;;;;49.50;26.03;;;;;;;;;;5009428;28;20049;-63
2022/10/22 03:42:16;;;;;;;50.20;26.53;;;;;;;;;;5009543;28;20049;-63
2022/10/22 03:44:42;;;;;;;42.90;23.67;;;;;;;;;;5009647;28;20416;-63
2022/10/22 03:47:08;;;;;;;51.47;26.93;;;;;;;;;;5009787;28;20088;-63
2022/10/22 03:49:35;;;;;;;60.87;27.13;;;;;;;;;;5009706;28;20422;-63
2022/10/22 03:52:07;;;;;;;56.90;27.83;;;;;;;;;;5009401;28;20049;-63
2022/10/22 03:54:34;;;;;;;45.75;25.33;;;;;;;;;;5009282;28;20562;-63
2022/10/22 03:57:00;;;;;;;60.57;29.73;;;;;;;;;;5009660;28;20132;-63
2022/10/22 03:59:26;;;;;;;55.00;28.00;;;;;;;;;;5009241;28;20053;-63
2022/10/22 04:01:53;;;;;;;50.50;25.97;;;;;;;;;;5009183;28;20038;-63
2022/10/22 04:04:19;;;;;;;65.23;29.40;;;;;;;;;;5009717;28;20056;-63
2022/10/22 04:06:45;;;;;;;55.10;26.93;;;;;;;;;;5026325;28;20053;-63
2022/10/22 04:09:11;;;;;;;52.67;26.03;;;;;;;;;;5028877;28;20049;-63
2022/10/22 04:11:37;;;;;;;67.80;31.13;;;;;;;;;;5028710;28;20526;-64
2022/10/22 04:14:03;;;;;;;70.63;29.97;;;;;;;;;;5028709;28;20057;-63
2022/10/22 04:16:31;;;;;;;66.17;29.47;;;;;;;;;;5029276;28;20081;-63
2022/10/22 04:18:58;;;;;;;54.23;27.63;;;;;;;;;;5028870;28;20049;-64
2022/10/22 04:21:24;;;;;;;48.33;26.23;;;;;;;;;;5026535;28;20407;-62
2022/10/22 04:23:51;;;;;;;57.43;29.20;;;;;;;;;;5029530;28;20405;-62
2022/10/22 04:26:17;;;;;;;49.27;27.17;;;;;;;;;;5032152;28;20041;-63
2022/10/22 04:28:43;;;;;;;64.20;29.70;;;;;;;;;;5032130;28;20435;-63
2022/10/22 04:31:10;;;;;;;63.70;28.90;;;;;;;;;;5032153;28;20480;-63
2022/10/22 04:33:37;;;;;;;56.00;27.67;;;;;;;;;;5030401;28;20058;-63
2022/10/22 04:36:07;;;;;;;88.50;35.77;;;;;;;;;;5030770;28;20144;-64
2022/10/22 04:38:33;;;;;;;64.17;31.33;;;;;;;;;;5032615;28;20077;-62
2022/10/22 04:41:07;;;;;;;65.40;28.97;;;;;;;;;;5032052;28;20506;-64
2022/10/22 04:43:33;;;;;;;76.63;33.23;;;;;;;;;;5032364;28;20049;-62
2022/10/22 04:46:00;;;;;;;58.10;28.53;;;;;;;;;;5031594;28;20050;-63
2022/10/22 04:48:26;;;;;;;66.40;29.93;;;;;;;;;;5031979;28;20037;-63
2022/10/22 04:50:52;;;;;;;56.83;28.07;;;;;;;;;;5031316;28;20045;-63
2022/10/22 04:53:18;;;;;;;81.97;31.97;;;;;;;;;;5030238;28;20053;-63
2022/10/22 04:55:44;;;;;;;45.10;24.43;;;;;;;;;;5031426;28;20075;-66
2022/10/22 04:58:10;;;;;;;57.57;27.53;;;;;;;;;;5030831;28;20041;-64
2022/10/22 05:00:36;;;;;;;59.00;29.07;;;;;;;;;;5031896;28;20053;-63
2022/10/22 05:03:02;;;;;;;59.90;27.47;;;;;;;;;;5031812;28;20057;-63
2022/10/22 05:05:28;;;;;;;50.07;26.00;;;;;;;;;;5031473;28;20061;-65
2022/10/22 05:07:54;;;;;;;63.97;27.87;;;;;;;;;;5031984;28;20526;-62
2022/10/22 05:10:20;;;;;;;40.40;22.83;;;;;;;;;;5030700;28;20118;-64
2022/10/22 05:12:46;;;;;;;52.60;26.17;;;;;;;;;;5015033;28;20077;-64
2022/10/22 05:15:12;;;;;;;59.57;27.83;;;;;;;;;;5011632;28;20072;-65
2022/10/22 05:17:38;;;;;;;40.10;21.80;;;;;;;;;;5018077;28;20099;-62
2022/10/22 05:20:05;;;;;;;33.43;20.13;;;;;;;;;;5031706;28;20045;-62
2022/10/22 05:22:31;;;;;;;36.90;19.40;;;;;;;;;;5017402;28;20042;-63
2022/10/22 05:24:57;;;;;;;46.87;23.67;;;;;;;;;;5012087;28;20408;-63
2022/10/22 05:27:24;;;;;;;39.30;21.40;;;;;;;;;;5011513;28;20149;-63
2022/10/22 05:29:50;;;;;;;42.07;19.97;;;;;;;;;;5015292;28;20609;-64
2022/10/22 05:32:16;;;;;;;39.07;19.43;;;;;;;;;;5011710;28;20049;-64
2022/10/22 05:34:42;;;;;;;32.63;17.37;;;;;;;;;;5016807;28;20053;-63
2022/10/22 05:37:08;;;;;;;26.83;15.53;;;;;;;;;;5030380;28;20050;-65
2022/10/22 05:39:35;;;;;;;26.67;13.53;;;;;;;;;;5030551;28;20061;-64
2022/10/22 05:42:02;;;;;;;32.67;15.77;;;;;;;;;;5029024;28;20192;-63
2022/10/22 05:44:28;;;;;;;30.40;16.07;;;;;;;;;;5028934;28;20042;-64
2022/10/22 05:46:54;;;;;;;31.60;17.10;;;;;;;;;;5030332;28;20049;-64
2022/10/22 05:49:20;;;;;;;32.00;16.77;;;;;;;;;;5030115;28;20415;-64
2022/10/22 05:51:46;;;;;;;27.17;13.97;;;;;;;;;;5029485;28;20116;-64
2022/10/22 05:54:17;;;;;;;29.90;14.03;;;;;;;;;;5030034;28;20049;-65
2022/10/22 05:56:43;;;;;;;23.60;12.10;;;;;;;;;;5030069;28;20045;-64
2022/10/22 05:59:10;;;;;;;22.50;12.63;;;;;;;;;;5029827;28;20045;-64
2022/10/22 06:01:36;;;;;;;20.00;10.87;;;;;;;;;;5028986;28;20539;-64
2022/10/22 06:04:04;;;;;;;23.53;12.07;;;;;;;;;;5027579;28;20064;-64
2022/10/22 06:06:32;;;;;;;21.50;11.30;;;;;;;;;;5029656;28;20052;-63
2022/10/22 06:09:04;;;;;;;26.97;12.17;;;;;;;;;;5029760;28;20134;-63
2022/10/22 06:11:30;;;;;;;26.53;11.87;;;;;;;;;;5030009;28;20403;-64
2022/10/22 06:13:56;;;;;;;29.67;12.27;;;;;;;;;;5029264;28;20095;-64
2022/10/22 06:16:23;;;;;;;20.27;11.40;;;;;;;;;;5029691;28;20056;-65
2022/10/22 06:18:49;;;;;;;22.20;12.63;;;;;;;;;;5027977;28;20463;-64
2022/10/22 06:21:15;;;;;;;27.83;12.07;;;;;;;;;;5029655;28;20049;-65
2022/10/22 06:23:42;;;;;;;25.67;12.83;;;;;;;;;;5028898;28;20045;-63
2022/10/22 06:26:08;;;;;;;26.40;11.13;;;;;;;;;;5029209;28;20140;-64
2022/10/22 06:28:35;;;;;;;24.33;12.03;;;;;;;;;;5027407;28;20499;-64
2022/10/22 06:31:02;;;;;;;17.70;10.00;;;;;;;;;;5027097;28;20454;-64
2022/10/22 06:33:28;;;;;;;21.50;11.13;;;;;;;;;;5009060;28;20084;-65
2022/10/22 06:35:54;;;;;;;20.63;10.57;;;;;;;;;;5008862;28;20058;-65
2022/10/22 06:38:20;;;;;;;24.87;9.67;;;;;;;;;;5009060;28;20049;-65
2022/10/22 06:40:47;;;;;;;19.67;10.33;;;;;;;;;;5009027;28;20085;-64
2022/10/22 06:43:13;;;;;;;16.83;10.60;;;;;;;;;;5008589;28;20064;-65
2022/10/22 06:45:39;;;;;;;23.87;11.57;;;;;;;;;;5010246;28;20045;-65
2022/10/22 06:48:06;;;;;;;23.63;11.10;;;;;;;;;;5007841;28;20534;-65
2022/10/22 06:50:33;;;;;;;19.80;10.53;;;;;;;;;;5015431;28;20045;-65
2022/10/22 06:52:59;;;;;;;18.63;10.60;;;;;;;;;;5027056;28;20484;-64
2022/10/22 06:55:25;;;;;;;19.83;10.27;;;;;;;;;;5028327;28;20692;-65
2022/10/22 06:57:51;;;;;;;21.50;10.20;;;;;;;;;;5028428;28;20698;-65
2022/10/22 07:00:18;;;;;;;22.60;12.27;;;;;;;;;;5010109;28;20057;-65
2022/10/22 07:02:44;;;;;;;24.20;10.70;;;;;;;;;;5026434;28;20061;-65
2022/10/22 07:05:10;;;;;;;23.27;11.53;;;;;;;;;;5028286;28;20045;-64
2022/10/22 07:07:36;;;;;;;17.17;9.40;;;;;;;;;;5028065;28;20416;-64
2022/10/22 07:10:02;;;;;;;19.30;10.27;;;;;;;;;;5028124;28;20056;-65
2022/10/22 07:12:28;;;;;;;27.20;11.03;;;;;;;;;;5028588;28;20045;-64
2022/10/22 07:14:54;;;;;;;21.47;10.17;;;;;;;;;;5027561;28;20053;-65
2022/10/22 07:17:20;;;;;;;19.47;11.13;;;;;;;;;;5025627;28;20076;-63
2022/10/22 07:19:46;;;;;;;21.73;11.73;;;;;;;;;;5009560;28;20180;-64
2022/10/22 07:22:12;;;;;;;16.50;9.63;;;;;;;;;;5028175;28;20042;-65
2022/10/22 07:24:38;;;;;;;19.57;10.20;;;;;;;;;;5028323;28;20045;-65
2022/10/22 07:27:04;;;;;;;20.83;9.47;;;;;;;;;;5027712;28;20064;-65
2022/10/22 07:29:30;;;;;;;25.50;10.13;;;;;;;;;;5028312;28;20442;-65
2022/10/22 07:31:56;;;;;;;21.87;9.60;;;;;;;;;;5027857;28;20427;-65
2022/10/22 07:34:22;;;;;;;28.03;9.93;;;;;;;;;;5027735;28;20767;-65
2022/10/22 07:36:48;;;;;;;23.53;9.60;;;;;;;;;;5027876;28;20427;-65
2022/10/22 07:39:14;;;;;;;18.13;9.40;;;;;;;;;;5027721;28;20037;-65
2022/10/22 07:41:40;;;;;;;27.87;10.00;;;;;;;;;;5027640;28;20056;-65
2022/10/22 07:44:06;;;;;;;17.97;9.60;;;;;;;;;;5028161;28;20041;-65
2022/10/22 07:46:34;;;;;;;20.37;9.53;;;;;;;;;;5026237;28;20045;-65
2022/10/22 07:49:00;;;;;;;17.90;9.27;;;;;;;;;;5017150;28;20081;-65
2022/10/22 07:51:26;;;;;;;20.20;9.80;;;;;;;;;;5007943;28;20046;-64
2022/10/22 07:53:52;;;;;;;17.30;9.60;;;;;;;;;;5007533;28;20100;-64
2022/10/22 07:56:18;;;;;;;17.47;9.93;;;;;;;;;;5008124;28;20050;-64
2022/10/22 07:58:44;;;;;;;16.40;9.60;;;;;;;;;;5008234;28;20042;-65
2022/10/22 08:01:10;;;;;;;29.27;11.30;;;;;;;;;;5012038;28;20050;-66
2022/10/22 08:03:36;;;;;;;21.90;9.37;;;;;;;;;;5011762;28;20054;-65
2022/10/22 08:06:03;;;;;;;21.93;9.23;;;;;;;;;;5011498;28;20104;-65
2022/10/22 08:08:29;;;;;;;19.07;9.23;;;;;;;;;;5012637;28;20562;-65
2022/10/22 08:10:57;;;;;;;16.97;8.97;;;;;;;;;;5011618;28;20043;-65
2022/10/22 08:13:23;;;;;;;19.17;8.80;;;;;;;;;;5011491;28;20049;-65
2022/10/22 08:15:49;;;;;;;21.53;9.00;;;;;;;;;;5011394;28;20045;-65
2022/10/22 08:18:15;;;;;;;21.93;8.43;;;;;;;;;;5012285;28;20045;-65
2022/10/22 08:20:41;;;;;;;19.37;8.53;;;;;;;;;;5010880;28;20042;-65
2022/10/22 08:23:08;;;;;;;17.77;8.37;;;;;;;;;;5009688;28;20078;-65
2022/10/22 08:25:34;;;;;;;20.37;8.73;;;;;;;;;;5009172;28;20485;-65
2022/10/22 08:28:00;;;;;;;20.80;8.27;;;;;;;;;;5009457;28;20053;-65
2022/10/22 08:30:28;;;;;;;27.03;9.47;;;;;;;;;;5008700;28;20046;-65
2022/10/22 08:32:54;;;;;;;24.30;8.73;;;;;;;;;;5009095;28;20100;-65
2022/10/22 08:35:20;;;;;;;19.93;7.73;;;;;;;;;;5007855;28;20093;-65
2022/10/22 08:37:46;;;;;;;15.87;6.67;;;;;;;;;;5010533;28;20053;-65
2022/10/22 08:40:19;;;;;;;16.87;6.37;;;;;;;;;;5018945;28;20057;-65
2022/10/22 08:43:04;;;;;;;14.35;6.80;;;;;;;;;;5010888;28;20050;-64
2022/10/22 08:45:34;;;;;;;16.10;6.33;;;;;;;;;;5010795;28;20085;-65
2022/10/22 08:48:09;;;;;;;13.80;5.90;;;;;;;;;;5010732;28;20419;-65
2022/10/22 08:50:38;;;;;;;22.70;5.53;;;;;;;;;;5010583;28;20168;-65
2022/10/22 08:53:06;;;;;;;10.73;5.20;;;;;;;;;;5010400;28;20046;-65
2022/10/22 08:55:33;;;;;;;10.93;5.80;;;;;;;;;;5010660;28;20453;-65
2022/10/22 08:58:08;;;;;;;15.20;5.03;;;;;;;;;;5009859;28;20393;-65
2022/10/22 09:00:43;;;;;;;13.50;5.70;;;;;;;;;;5011150;28;20045;-65
2022/10/22 09:03:33;;;;;;;15.13;5.90;;;;;;;;;;5019444;28;20132;-65
2022/10/22 09:06:06;;;;;;;16.33;5.90;;;;;;;;;;5030210;28;20053;-65
2022/10/22 09:08:32;;;;;;;13.60;4.53;;;;;;;;;;5010881;28;20099;-65
2022/10/22 09:11:05;;;;;;;14.27;3.57;;;;;;;;;;5015143;28;20400;-65
2022/10/22 09:13:31;;;;;;;16.05;4.10;;;;;;;;;;5029899;28;20045;-65
2022/10/22 09:16:05;;;;;;;11.40;4.00;;;;;;;;;;5018285;28;20042;-65
2022/10/22 09:18:53;;;;;;;15.03;4.40;;;;;;;;;;5027074;28;20454;-64
2022/10/22 09:21:37;;;;;;;14.27;5.57;;;;;;;;;;5023619;28;20188;-65
2022/10/22 09:24:26;;;;;;;9.60;3.93;;;;;;;;;;5021733;28;20049;-65
2022/10/22 09:26:52;;;;;;;13.07;4.23;;;;;;;;;;5019446;28;20057;-65
2022/10/22 09:29:21;;;;;;;13.07;3.60;;;;;;;;;;5028172;28;20080;-64
2022/10/22 09:31:47;;;;;;;14.73;4.00;;;;;;;;;;5016137;28;20517;-64
2022/10/22 09:34:14;;;;;;;12.60;3.53;;;;;;;;;;5029905;28;20478;-64
2022/10/22 09:36:40;;;;;;;10.47;3.07;;;;;;;;;;5016625;28;20089;-65
2022/10/22 09:39:21;;;;;;;14.43;3.23;;;;;;;;;;5010094;28;20053;-64
2022/10/22 09:41:47;;;;;;;14.23;4.57;;;;;;;;;;5009771;28;20189;-65
2022/10/22 09:44:13;;;;;;;17.07;4.17;;;;;;;;;;5013897;28;20045;-64
2022/10/22 09:46:42;;;;;;;14.33;4.07;;;;;;;;;;5029064;28;20057;-64
2022/10/22 09:49:14;;;;;;;14.77;4.23;;;;;;;;;;5028233;28;20049;-64
2022/10/22 09:51:45;;;;;;;10.30;4.40;;;;;;;;;;5028685;28;20498;-64
2022/10/22 09:54:16;;;;;;;10.93;3.57;;;;;;;;;;5027572;28;20554;-64
2022/10/22 09:56:42;;;;;;;11.10;3.50;;;;;;;;;;5028631;28;20049;-64
2022/10/22 09:59:14;;;;;;;14.10;3.50;;;;;;;;;;5027785;28;20045;-64
2022/10/22 10:01:40;;;;;;;12.87;4.70;;;;;;;;;;5025693;28;20476;-64
2022/10/22 10:04:08;;;;;;;7.37;3.17;;;;;;;;;;5025412;28;20045;-64
2022/10/22 10:06:35;;;;;;;7.67;3.10;;;;;;;;;;5019701;28;20041;-64
2022/10/22 10:09:04;;;;;;;14.07;3.73;;;;;;;;;;5012158;28;20371;-64
2022/10/22 10:11:43;;;;;;;12.43;3.63;;;;;;;;;;5007225;28;20046;-64
2022/10/22 10:14:26;;;;;;;9.57;3.60;;;;;;;;;;5009087;28;20046;-64
2022/10/22 10:16:54;;;;;;;11.63;3.67;;;;;;;;;;5009259;28;20487;-64
2022/10/22 10:19:39;;;;;;;12.13;3.90;;;;;;;;;;5009451;28;20164;-64
2022/10/22 10:22:09;;;;;;;8.70;3.40;;;;;;;;;;5027760;28;20534;-64
2022/10/22 10:24:51;;;;;;;16.77;4.47;;;;;;;;;;5025196;28;20064;-64
2022/10/22 10:27:29;;;;;;;13.47;3.63;;;;;;;;;;5020406;28;20042;-64
2022/10/22 10:30:04;;;;;;;12.67;4.27;;;;;;;;;;5009937;28;20132;-64
2022/10/22 10:32:47;;;;;;;10.40;3.60;;;;;;;;;;5011962;28;20124;-64
2022/10/22 10:35:21;;;;;;;13.27;3.97;;;;;;;;;;5008850;28;20052;-64
2022/10/22 10:37:47;;;;;;;16.87;4.27;;;;;;;;;;5007814;28;20076;-64
2022/10/22 10:40:16;;;;;;;14.33;3.70;;;;;;;;;;5012010;28;20045;-64
2022/10/22 10:42:51;;;;;;;13.50;4.20;;;;;;;;;;5012053;28;20866;-64
2022/10/22 10:45:37;;;;;;;12.37;4.13;;;;;;;;;;5008916;28;20041;-64
2022/10/22 10:48:03;;;;;;;15.30;4.77;;;;;;;;;;5008513;28;20125;-64
2022/10/22 10:50:40;;;;;;;13.57;4.90;;;;;;;;;;5007638;28;20046;-64
2022/10/22 10:53:17;;;;;;;11.93;5.40;;;;;;;;;;5009913;28;20049;-64
2022/10/22 10:55:46;;;;;;;18.53;6.07;;;;;;;;;;5018112;28;20045;-64
2022/10/22 10:58:28;;;;;;;11.83;4.97;;;;;;;;;;5008823;28;20038;-64
2022/10/22 11:01:02;;;;;;;21.43;8.07;;;;;;;;;;5009471;28;20107;-63
2022/10/22 11:03:55;;;;;;;11.07;5.53;;;;;;;;;;5012971;28;20060;-64
2022/10/22 11:06:21;;;;;;;14.90;7.70;;;;;;;;;;5018556;28;20181;-64
2022/10/22 11:08:54;;;;;;;16.87;7.90;;;;;;;;;;5008485;28;20496;-64
2022/10/22 11:11:32;;;;;;;17.60;8.20;;;;;;;;;;5014681;28;20045;-64
2022/10/22 11:14:01;;;;;;;19.87;7.43;;;;;;;;;;5007226;28;20041;-64
2022/10/22 11:16:47;;;;;;;17.10;7.67;;;;;;;;;;5011749;28;20054;-64
2022/10/22 11:19:16;;;;;;;17.87;8.17;;;;;;;;;;5013187;28;20106;-65
2022/10/22 11:21:46;;;;;;;16.00;7.87;;;;;;;;;;5008920;28;20046;-64
2022/10/22 11:24:19;;;;;;;13.77;7.20;;;;;;;;;;5016713;28;20038;-64
2022/10/22 11:27:02;;;;;;;18.02;8.05;;;;;;;;;;5008053;28;20510;-64
2022/10/22 11:29:31;;;;;;;16.48;7.60;;;;;;;;;;5006230;28;20471;-64
2022/10/22 11:31:57;;;;;;;14.73;6.80;;;;;;;;;;5009230;28;20516;-64
2022/10/22 11:34:26;;;;;;;17.37;7.10;;;;;;;;;;5021764;28;20061;-64
2022/10/22 11:36:54;;;;;;;14.53;5.60;;;;;;;;;;5012790;28;20089;-64
2022/10/22 11:39:38;;;;;;;17.80;5.40;;;;;;;;;;5024653;28;20049;-64
2022/10/22 11:42:06;;;;;;;13.37;5.00;;;;;;;;;;5019679;28;20045;-64
2022/10/22 11:44:44;;;;;;;10.60;4.70;;;;;;;;;;5011139;28;20038;-64
2022/10/22 11:47:23;;;;;;;10.37;3.93;;;;;;;;;;5022174;28;20049;-64
2022/10/22 11:49:56;;;;;;;9.37;4.80;;;;;;;;;;5012465;28;20042;-64
2022/10/22 11:52:31;;;;;;;13.23;4.83;;;;;;;;;;5030402;28;20060;-64
2022/10/22 11:55:00;;;;;;;12.07;3.70;;;;;;;;;;5023826;28;20420;-64
2022/10/22 11:57:28;;;;;;;11.17;4.20;;;;;;;;;;5013821;28;20124;-64
2022/10/22 11:59:58;;;;;;;12.00;3.60;;;;;;;;;;5015961;28;20143;-64
2022/10/22 12:02:27;;;;;;;11.43;4.27;;;;;;;;;;5024826;28;20049;-64
2022/10/22 12:04:55;;;;;;;12.53;3.77;;;;;;;;;;5010931;28;20042;-63
2022/10/22 12:07:32;;;;;;;10.03;3.57;;;;;;;;;;5023323;28;20046;-63
2022/10/22 12:09:58;;;;;;;9.27;3.00;;;;;;;;;;5021609;28;20475;-63
2022/10/22 12:12:26;;;;;;;9.90;3.07;;;;;;;;;;5010569;28;20046;-63
2022/10/22 12:14:52;;;;;;;15.57;3.90;;;;;;;;;;5011266;28;20042;-63
2022/10/22 12:17:19;;;;;;;11.03;4.03;;;;;;;;;;5026507;28;20060;-63
2022/10/22 12:19:48;;;;;;;10.10;2.90;;;;;;;;;;5016488;28;20049;-63
2022/10/22 12:22:19;;;;;;;10.00;3.33;;;;;;;;;;5009712;28;20100;-64
2022/10/22 12:24:48;;;;;;;17.53;3.13;;;;;;;;;;5011242;28;20050;-63
2022/10/22 12:27:25;;;;;;;9.93;2.90;;;;;;;;;;5016882;28;20096;-63
2022/10/22 12:29:55;;;;;;;15.37;3.13;;;;;;;;;;5020927;28;20041;-63
2022/10/22 12:32:21;;;;;;;8.57;2.87;;;;;;;;;;5023575;28;20046;-63
2022/10/22 12:34:48;;;;;;;17.70;3.73;;;;;;;;;;5018141;28;20157;-63
2022/10/22 12:37:15;;;;;;;11.73;3.03;;;;;;;;;;5014956;28;20069;-63
2022/10/22 12:39:41;;;;;;;11.60;3.47;;;;;;;;;;5020358;28;20508;-63
2022/10/22 12:42:12;;;;;;;14.63;2.97;;;;;;;;;;5011044;28;20885;-63
2022/10/22 12:44:38;;;;;;;12.83;2.60;;;;;;;;;;5010442;28;20046;-63
2022/10/22 12:47:05;;;;;;;9.53;2.80;;;;;;;;;;5010227;28;20439;-63
2022/10/22 12:49:34;;;;;;;10.13;2.53;;;;;;;;;;5010457;28;20042;-63
2022/10/22 12:52:05;;;;;;;9.60;2.93;;;;;;;;;;5010724;28;20052;-63
2022/10/22 12:54:32;;;;;;;13.17;3.50;;;;;;;;;;5010214;28;20137;-63
2022/10/22 12:56:59;;;;;;;12.53;3.43;;;;;;;;;;5009706;28;20042;-63
2022/10/22 12:59:27;;;;;;;10.23;3.13;;;;;;;;;;5010222;28;20049;-63
2022/10/22 13:01:53;;;;;;;10.80;3.07;;;;;;;;;;5010689;28;20124;-63
2022/10/22 13:04:22;;;;;;;7.43;3.53;;;;;;;;;;5010409;28;20049;-63
2022/10/22 13:07:02;;;;;;;11.47;2.80;;;;;;;;;;5018344;28;20041;-63
2022/10/22 13:09:37;;;;;;;11.20;2.53;;;;;;;;;;5030491;28;20036;-63
2022/10/22 13:12:04;;;;;;;10.27;2.77;;;;;;;;;;5029705;28;20067;-63
2022/10/22 13:14:33;;;;;;;8.13;2.10;;;;;;;;;;5030196;28;20056;-63
2022/10/22 13:17:08;;;;;;;9.23;2.43;;;;;;;;;;5013387;28;20133;-63
2022/10/22 13:19:39;;;;;;;8.63;2.20;;;;;;;;;;5008939;28;20234;-63
2022/10/22 13:22:05;;;;;;;10.90;3.13;;;;;;;;;;5011261;28;20639;-62
2022/10/22 13:24:31;;;;;;;8.90;2.03;;;;;;;;;;5021675;28;20052;-63
2022/10/22 13:26:57;;;;;;;10.10;1.90;;;;;;;;;;5029678;28;20099;-63
2022/10/22 13:29:23;;;;;;;10.83;1.77;;;;;;;;;;5011892;28;20054;-63
2022/10/22 13:31:51;;;;;;;10.13;2.33;;;;;;;;;;5010364;28;20041;-63
2022/10/22 13:34:18;;;;;;;8.37;1.87;;;;;;;;;;5015304;28;20163;-62
2022/10/22 13:36:45;;;;;;;9.07;1.90;;;;;;;;;;5028695;28;20058;-62
2022/10/22 13:39:21;;;;;;;6.43;1.67;;;;;;;;;;5012531;28;20056;-63
2022/10/22 13:41:49;;;;;;;3.83;1.40;;;;;;;;;;5020486;28;20049;-63
2022/10/22 13:44:15;;;;;;;7.27;1.73;;;;;;;;;;5020566;28;20050;-63
2022/10/22 13:46:42;;;;;;;6.50;1.90;;;;;;;;;;5024577;28;20049;-63
2022/10/22 13:49:16;;;;;;;9.00;1.73;;;;;;;;;;5028938;28;20499;-63
2022/10/22 13:51:42;;;;;;;6.83;1.97;;;;;;;;;;5012871;28;20079;-62
2022/10/22 13:54:16;;;;;;;9.93;1.67;;;;;;;;;;5008946;28;20129;-62
2022/10/22 13:56:42;;;;;;;6.50;1.37;;;;;;;;;;5008827;28;20084;-63
2022/10/22 13:59:08;;;;;;;7.80;1.33;;;;;;;;;;5008808;28;20056;-62
2022/10/22 14:01:36;;;;;;;7.23;1.90;;;;;;;;;;5009635;28;20056;-62
2022/10/22 14:04:03;;;;;;;20.13;3.17;;;;;;;;;;5026238;28;21184;-62
2022/10/22 14:06:30;;;;;;;8.27;1.80;;;;;;;;;;5008754;28;20041;-62
2022/10/22 14:08:57;;;;;;;8.60;1.90;;;;;;;;;;5022649;28;20050;-63
2022/10/22 14:11:26;;;;;;;9.30;2.03;;;;;;;;;;5027033;28;20046;-63
2022/10/22 14:13:52;;;;;;;6.33;1.80;;;;;;;;;;5029344;28;20409;-63
2022/10/22 14:16:25;;;;;;;8.50;2.37;;;;;;;;;;5026378;28;20046;-62
2022/10/22 14:18:51;;;;;;;6.43;1.93;;;;;;;;;;5029104;28;20079;-62
2022/10/22 14:21:18;;;;;;;9.87;1.93;;;;;;;;;;5028365;28;20045;-62
2022/10/22 14:23:45;;;;;;;14.60;2.33;;;;;;;;;;5028789;28;20129;-63
2022/10/22 14:26:22;;;;;;;10.83;2.00;;;;;;;;;;5028795;28;20084;-62
2022/10/22 14:28:49;;;;;;;9.70;2.00;;;;;;;;;;5009899;28;20527;-62
2022/10/22 14:31:15;;;;;;;6.37;1.87;;;;;;;;;;5008476;28;20709;-62
2022/10/22 14:33:41;;;;;;;14.43;1.97;;;;;;;;;;5025084;28;20045;-62